»·PEaware :: N522PM KPSP-KSNA

N522PM :: KPSP-KSNA

FLIGHT INFORMATION

Flight Status: Arrived
Operator: Privately registered:
United States
More flights under this callsign
Pilot: Bruce B. (6887)
Aircraft: Unknown
(E50P)
More flights by this aircraft type
Origin: KPSP Palm Springs Intl
United States
Destination: KSNA John Wayne-Orange Co
United States
More flights between these airports :: More routes between these airports
Route: PDZ
File this flight plan on PilotEdge
Remarks:
Altitude:
(Current/Filed)
10,500ft
Speed:
(Current/Filed)
275kts
Departed: 13-Jan-18 03:46 PM
Arrived: 13-Jan-18 04:12 PM
Distance/Time
Traveled:
69nm/0:25
Distance/Time
To Go:
Arrived

Flight Plot

Page will automatically refresh every two minutes.

Flight plan parsing failed; only flown route is shown


Map Options




Map Legend


Flown Route
Filed Route
Departure Airport
Arrival Airport
Navaid (VOR, NDB)
Fix

Horizontal Profiles

Position Reports

Time Latitude Longitude Heading Altitude Ground
Speed
13-Jan-18 15:33 33.823872 -116.498084 53 482ft 0kts
13-Jan-18 15:34 33.823872 -116.498084 53 482ft 0kts
13-Jan-18 15:35 33.823872 -116.498084 53 482ft 0kts
13-Jan-18 15:36 33.823872 -116.498084 53 482ft 0kts
13-Jan-18 15:37 33.823872 -116.498084 53 482ft 0kts
13-Jan-18 15:38 33.823872 -116.498084 53 482ft 0kts
13-Jan-18 15:39 33.823872 -116.498084 53 482ft 0kts
13-Jan-18 15:40 33.823872 -116.498084 53 482ft 0kts
13-Jan-18 15:41 33.823872 -116.498084 53 482ft 0kts
13-Jan-18 15:42 33.823872 -116.498084 53 482ft 0kts
13-Jan-18 15:43 33.823872 -116.498084 53 482ft 0kts
13-Jan-18 15:44 33.823872 -116.498084 53 482ft 0kts
13-Jan-18 15:45 33.823872 -116.498084 53 482ft 0kts
13-Jan-18 15:46 33.822479 -116.496785 162 482ft 11kts
13-Jan-18 15:47 33.820144 -116.495705 220 482ft 7kts
13-Jan-18 15:48 33.819242 -116.497046 233 482ft 0kts
13-Jan-18 15:49 33.819241 -116.497046 233 482ft 0kts
13-Jan-18 15:50 33.819241 -116.497046 233 482ft 0kts
13-Jan-18 15:51 33.819057 -116.498217 319 482ft 16kts
13-Jan-18 15:52 33.840293 -116.516767 325 958ft 139kts
13-Jan-18 15:53 33.874004 -116.545620 323 2511ft 163kts
13-Jan-18 15:54 33.912624 -116.581366 323 4221ft 182kts
13-Jan-18 15:55 33.941877 -116.630960 275 6228ft 201kts
13-Jan-18 15:56 33.940612 -116.696829 270 8202ft 203kts
13-Jan-18 15:57 33.939089 -116.764865 270 10082ft 200kts
13-Jan-18 15:58 33.937297 -116.837810 270 10555ft 239kts
13-Jan-18 15:59 33.935152 -116.924530 269 10516ft 276kts
13-Jan-18 16:00 33.932738 -117.018393 269 10491ft 280kts
13-Jan-18 16:01 33.930270 -117.112024 268 10472ft 280kts
13-Jan-18 16:02 33.927741 -117.204028 268 9969ft 265kts
13-Jan-18 16:03 33.925508 -117.284888 268 9029ft 254kts
13-Jan-18 16:04 33.923108 -117.368321 268 8513ft 246kts
13-Jan-18 16:05 33.920687 -117.451353 268 7717ft 253kts
13-Jan-18 16:06 33.910441 -117.536326 254 6233ft 261kts
13-Jan-18 16:07 33.894580 -117.619032 273 4784ft 261kts
13-Jan-18 16:08 33.920930 -117.689890 302 4057ft 206kts
13-Jan-18 16:09 33.947776 -117.744631 302 4175ft 187kts
13-Jan-18 16:10 33.951529 -117.799757 201 4339ft 201kts
13-Jan-18 16:11 33.897907 -117.805143 184 4176ft 188kts
13-Jan-18 16:12 33.847996 -117.810079 181 3869ft 173kts
13-Jan-18 16:13 33.803028 -117.815147 182 3623ft 143kts
13-Jan-18 16:14 33.764259 -117.820523 200 2949ft 139kts
13-Jan-18 16:15 33.727876 -117.835848 205 1602ft 133kts
13-Jan-18 16:16 33.697334 -117.855040 207 444ft 109kts
13-Jan-18 16:17 33.674169 -117.869818 208 61ft 65kts
13-Jan-18 16:18 33.669298 -117.871804 133 61ft 5kts
13-Jan-18 16:19 33.669205 -117.871670 125 61ft 2kts
13-Jan-18 16:20 33.670469 -117.869531 41 61ft 11kts
13-Jan-18 16:21 33.672210 -117.867409 207 61ft 5kts
13-Jan-18 16:22 33.672054 -117.867480 203 61ft 0kts
13-Jan-18 16:23 33.672054 -117.867480 203 61ft 0kts

Navigation Log

Ident Type
Flight plan parsing failed, navigation log unavailable